Strona główna
METAR-TAF:

METAR-TAF

Lotnisko :

Port lotniczy Minna

Minna, Nigeria

Szerokość geograficzna: 9-37N, Długość geograficzna: 6-32E, wysokość: 260 m

Aktualna obserwacja pogody

Raport powstał 57 minut temu, godzina 14:00 UTC
Wiatr 4 kt od południowy zachód
Temperatura 29°C
Wilgotność 74%
Ciśnienie 1013 hPa
Widzialność 10 km lub więcej
Rozproszone chmury na wysokości 1100 ft

METAR: DNMN 211400Z 22004KT 9999 SCT011 29/24 Q1013

czas: 15:57 (14:57 UTC)


TAF: brakujący

Obserwacja i prognoza pogody dla ponad 4000 lotnisk (raport METAR i TAF).

Dostępne stacje oznaczono żółtymi i czerwonymi punktami na mapie.

Najedź kursorem aby zobaczyć nazwę stacji.

Kliknij aby zobaczyć obserwacje i prognozy pogody.

Aby zmienić mapę: kliknij na zielony przycisk z czarnym krzyżykiem, aby powiększyć; na zielony przycisk z myślnikiem, aby pomniejszyć; na zielone strzałki, aby przejść do map sąsiednich.


METAR-TAF: